createdAt,value
2022-09-22T00:01:36.084Z,1.30
2022-09-22T00:04:07.203Z,1.30
2022-09-22T00:06:38.834Z,1.42
2022-09-22T00:09:09.275Z,1.40
2022-09-22T00:11:40.060Z,0.98
2022-09-22T00:14:10.789Z,1.60
2022-09-22T00:16:43.136Z,1.10
2022-09-22T00:19:14.202Z,1.45
2022-09-22T00:21:42.323Z,1.15
2022-09-22T00:24:10.533Z,0.98
2022-09-22T00:26:39.463Z,1.67
2022-09-22T00:29:09.350Z,1.42
2022-09-22T00:31:38.910Z,1.40
2022-09-22T00:34:09.295Z,1.23
2022-09-22T00:36:37.186Z,1.42
2022-09-22T00:39:05.485Z,1.25
2022-09-22T00:41:37.190Z,1.27
2022-09-22T00:44:37.103Z,1.55
2022-09-22T00:47:16.209Z,1.10
2022-09-22T00:49:50.812Z,1.10
2022-09-22T00:52:24.041Z,1.17
2022-09-22T00:54:54.194Z,1.30
2022-09-22T00:57:26.809Z,1.30
2022-09-22T00:59:55.489Z,1.50
2022-09-22T01:02:23.424Z,1.27
2022-09-22T01:04:53.613Z,1.10
2022-09-22T01:07:25.144Z,1.27
2022-09-22T01:09:53.533Z,1.13
2022-09-22T01:12:21.546Z,1.20
2022-09-22T01:15:02.596Z,1.65
2022-09-22T01:17:37.325Z,1.33
2022-09-22T01:20:31.011Z,1.30
2022-09-22T01:23:28.808Z,1.33
2022-09-22T01:26:33.348Z,1.50
2022-09-22T01:29:36.075Z,1.40
2022-09-22T01:32:16.779Z,1.30
2022-09-22T01:34:49.788Z,1.15
2022-09-22T01:37:25.324Z,1.00
2022-09-22T01:39:58.982Z,1.30
2022-09-22T01:42:33.801Z,1.23
2022-09-22T01:45:05.879Z,1.05
2022-09-22T01:47:40.601Z,1.10
2022-09-22T01:50:16.108Z,1.27
2022-09-22T01:52:45.312Z,0.90
2022-09-22T01:55:17.795Z,1.15
2022-09-22T01:57:52.537Z,0.98
2022-09-22T02:00:23.186Z,1.35
2022-09-22T02:02:59.668Z,1.10
2022-09-22T02:05:33.723Z,1.20
2022-09-22T02:08:08.332Z,1.00
2022-09-22T02:10:41.708Z,1.00
2022-09-22T02:13:09.718Z,0.90
2022-09-22T02:16:00.534Z,1.30
2022-09-22T02:18:35.146Z,1.20
2022-09-22T02:21:04.496Z,1.30
2022-09-22T02:23:33.264Z,0.98
2022-09-22T02:26:03.063Z,1.17
2022-09-22T02:28:32.780Z,1.02
2022-09-22T02:31:19.620Z,1.15
2022-09-22T02:33:51.887Z,1.02
2022-09-22T02:36:39.885Z,1.40
2022-09-22T02:39:12.489Z,1.17
2022-09-22T02:41:54.696Z,0.90
2022-09-22T02:44:27.004Z,0.80
2022-09-22T02:47:01.204Z,1.20
2022-09-22T02:49:31.413Z,1.13
2022-09-22T02:52:00.029Z,0.90
2022-09-22T02:54:28.042Z,1.38
2022-09-22T02:56:56.093Z,1.00
2022-09-22T02:59:24.053Z,1.33
2022-09-22T03:01:52.029Z,1.10
2022-09-22T03:04:19.935Z,0.80
2022-09-22T03:06:49.190Z,1.10
2022-09-22T03:09:18.132Z,1.13
2022-09-22T03:11:46.542Z,1.10
2022-09-22T03:14:14.513Z,1.17
2022-09-22T03:16:42.376Z,1.08
2022-09-22T03:19:10.340Z,1.00
2022-09-22T03:21:38.200Z,0.80
2022-09-22T03:24:07.667Z,1.02
2022-09-22T03:26:35.922Z,0.90
2022-09-22T03:29:03.847Z,1.23
2022-09-22T03:31:31.683Z,0.80
2022-09-22T03:33:59.727Z,1.25
2022-09-22T03:36:27.616Z,1.13
2022-09-22T03:38:55.745Z,1.20
2022-09-22T03:41:24.996Z,1.05
2022-09-22T03:43:53.568Z,0.90
2022-09-22T03:46:21.627Z,0.90
2022-09-22T03:48:49.561Z,1.00
2022-09-22T03:51:17.571Z,1.20
2022-09-22T03:53:46.205Z,1.02
2022-09-22T03:56:16.276Z,1.13
2022-09-22T03:58:45.750Z,1.10
2022-09-22T04:01:13.912Z,1.00
2022-09-22T04:03:41.951Z,1.13
2022-09-22T04:06:09.851Z,1.15
2022-09-22T04:08:37.777Z,0.85
2022-09-22T04:11:06.898Z,0.98
2022-09-22T04:13:35.436Z,1.10
2022-09-22T04:16:05.989Z,0.95
2022-09-22T04:18:34.285Z,1.45
2022-09-22T04:21:02.221Z,0.90
2022-09-22T04:23:30.142Z,1.13
2022-09-22T04:25:58.059Z,0.90
2022-09-22T04:28:26.258Z,1.00
2022-09-22T04:30:54.151Z,1.20
2022-09-22T04:33:24.520Z,1.20
2022-09-22T04:35:53.260Z,1.25
2022-09-22T04:38:21.597Z,0.88
2022-09-22T04:40:49.661Z,1.20
2022-09-22T04:43:17.889Z,1.10
2022-09-22T04:45:48.703Z,1.45
2022-09-22T04:48:17.142Z,1.05
2022-09-22T04:50:48.296Z,1.25
2022-09-22T04:53:16.896Z,1.30
2022-09-22T04:55:45.161Z,1.00
2022-09-22T04:58:13.984Z,1.00
2022-09-22T05:00:42.053Z,0.85
2022-09-22T05:03:10.606Z,1.20
2022-09-22T05:05:38.625Z,1.27
2022-09-22T05:08:07.951Z,1.63
2022-09-22T05:10:36.789Z,1.20
2022-09-22T05:13:05.844Z,1.20
2022-09-22T05:15:34.814Z,1.40
2022-09-22T05:18:02.937Z,1.40
2022-09-22T05:20:30.824Z,1.38
2022-09-22T05:22:58.768Z,1.45
2022-09-22T05:25:28.125Z,1.20
2022-09-22T05:27:57.375Z,1.17
2022-09-22T05:30:27.447Z,1.05
2022-09-22T05:32:55.407Z,1.40
2022-09-22T05:35:24.917Z,1.27
2022-09-22T05:37:54.264Z,1.23
2022-09-22T05:40:24.101Z,1.50
2022-09-22T05:42:54.876Z,1.40
2022-09-22T05:45:23.021Z,1.48
2022-09-22T05:47:51.224Z,1.80
2022-09-22T05:50:21.346Z,1.48
2022-09-22T05:52:49.228Z,1.27
2022-09-22T05:55:17.254Z,1.42
2022-09-22T05:57:45.105Z,1.20
2022-09-22T06:00:15.092Z,1.50
2022-09-22T06:02:44.678Z,1.25
2022-09-22T06:05:15.294Z,1.40
2022-09-22T06:07:45.355Z,1.38
2022-09-22T06:10:13.229Z,1.45
2022-09-22T06:12:41.347Z,1.33
2022-09-22T06:15:09.807Z,1.73
2022-09-22T06:17:39.086Z,1.40
2022-09-22T06:20:08.543Z,1.40
2022-09-22T06:22:37.293Z,1.40
2022-09-22T06:25:09.075Z,1.33
2022-09-22T06:27:37.080Z,1.77
2022-09-22T06:30:05.521Z,1.40
2022-09-22T06:32:34.312Z,1.38
2022-09-22T06:35:03.543Z,1.60
2022-09-22T06:37:32.639Z,1.00
2022-09-22T06:40:00.646Z,1.20
2022-09-22T06:42:28.596Z,1.10
2022-09-22T06:44:56.541Z,1.23
2022-09-22T06:47:24.468Z,0.88
2022-09-22T06:49:52.382Z,1.13
2022-09-22T06:52:21.644Z,0.90
2022-09-22T06:54:52.575Z,1.10
2022-09-22T06:57:21.553Z,1.00
2022-09-22T06:59:49.791Z,1.05
2022-09-22T07:02:18.417Z,1.30
2022-09-22T07:04:48.260Z,1.20
2022-09-22T07:07:16.569Z,1.17
2022-09-22T07:09:46.348Z,1.17
2022-09-22T07:12:14.316Z,1.10
2022-09-22T07:14:43.913Z,1.13
2022-09-22T07:17:11.865Z,1.50
2022-09-22T07:19:39.748Z,1.08
2022-09-22T07:22:08.220Z,1.23
2022-09-22T07:24:36.068Z,1.35
2022-09-22T07:27:07.056Z,0.90
2022-09-22T07:29:34.965Z,1.25
2022-09-22T07:32:03.930Z,0.90
2022-09-22T07:34:32.200Z,0.90
2022-09-22T07:37:00.877Z,1.00
2022-09-22T07:39:28.805Z,0.60
2022-09-22T07:41:56.690Z,0.70
2022-09-22T07:44:44.582Z,0.88
2022-09-22T07:47:13.141Z,1.15
2022-09-22T07:49:41.069Z,0.70
2022-09-22T07:52:09.944Z,1.05
2022-09-22T07:54:39.821Z,0.52
2022-09-22T07:57:11.099Z,0.50
2022-09-22T07:59:41.904Z,0.52
2022-09-22T08:02:11.537Z,0.70
2022-09-22T08:04:41.174Z,0.80
2022-09-22T08:07:09.184Z,0.65
2022-09-22T08:09:37.082Z,0.60
2022-09-22T08:12:05.279Z,0.50
2022-09-22T08:14:33.182Z,0.80
2022-09-22T08:17:02.421Z,0.82
2022-09-22T08:19:33.891Z,0.50
2022-09-22T08:22:01.774Z,0.52
2022-09-22T08:24:29.804Z,1.13
2022-09-22T08:26:57.720Z,0.90
2022-09-22T08:29:25.567Z,0.85
2022-09-22T08:31:54.326Z,0.63
2022-09-22T08:34:23.870Z,0.90
2022-09-22T08:36:51.793Z,1.05
2022-09-22T08:39:19.798Z,0.80
2022-09-22T08:42:05.841Z,1.13
2022-09-22T08:44:40.363Z,0.80
2022-09-22T08:47:17.547Z,0.85
2022-09-22T08:50:08.990Z,0.60
2022-09-22T08:52:39.962Z,0.88
2022-09-22T08:55:13.324Z,0.60
2022-09-22T08:57:59.352Z,0.80
2022-09-22T09:00:31.595Z,0.98
2022-09-22T09:03:14.365Z,0.90
2022-09-22T09:06:01.411Z,0.77
2022-09-22T09:09:19.999Z,0.77
2022-09-22T09:12:02.316Z,0.80
2022-09-22T09:14:48.941Z,0.60
2022-09-22T09:17:22.009Z,0.80
2022-09-22T09:19:55.412Z,0.60
2022-09-22T09:22:28.681Z,0.68
2022-09-22T09:27:55.245Z,0.68
2022-09-22T09:30:23.565Z,0.90
2022-09-22T09:32:54.736Z,0.70
2022-09-22T09:35:26.873Z,0.60
2022-09-22T09:37:59.246Z,0.63
2022-09-22T09:40:27.723Z,0.40
2022-09-22T09:43:03.258Z,0.75
2022-09-22T09:45:38.210Z,0.50
2022-09-22T09:48:18.995Z,1.25
2022-09-22T09:50:47.008Z,0.70
2022-09-22T09:53:41.497Z,0.98
2022-09-22T09:56:24.232Z,1.00
2022-09-22T09:59:17.539Z,0.60
2022-09-22T10:01:48.156Z,0.65
2022-09-22T10:04:29.103Z,1.23
2022-09-22T10:07:10.372Z,0.93
2022-09-22T10:09:40.071Z,1.35
2022-09-22T10:12:25.767Z,34.35
2022-09-22T10:14:55.513Z,662.45
2022-09-22T10:17:27.867Z,701.63
2022-09-22T10:20:17.599Z,578.35
2022-09-22T10:22:45.784Z,538.20
2022-09-22T10:25:23.675Z,610.05
2022-09-22T10:28:02.996Z,574.47
2022-09-22T10:30:37.148Z,608.40
2022-09-22T10:33:11.718Z,582.72
2022-09-22T10:35:40.654Z,488.70
2022-09-22T10:38:15.759Z,373.65
2022-09-22T10:40:48.673Z,420.17
2022-09-22T10:43:37.143Z,274.50
2022-09-22T10:46:26.412Z,258.67
2022-09-22T10:49:03.960Z,264.63
2022-09-22T10:51:47.413Z,196.82
2022-09-22T10:54:30.123Z,162.02
2022-09-22T10:57:09.230Z,150.20
2022-09-22T10:59:53.905Z,125.10
2022-09-22T11:02:55.253Z,117.82
2022-09-22T11:05:50.692Z,227.48
2022-09-22T11:08:38.604Z,132.18
2022-09-22T11:11:37.262Z,80.93
2022-09-22T11:14:24.585Z,63.95
2022-09-22T11:17:10.431Z,53.90
2022-09-22T11:20:01.492Z,52.00
2022-09-22T11:22:45.134Z,51.15
2022-09-22T11:25:40.872Z,39.67
2022-09-22T11:28:26.089Z,36.50
2022-09-22T11:30:57.590Z,30.80
2022-09-22T11:33:48.884Z,25.10
2022-09-22T11:36:27.665Z,25.45
2022-09-22T11:39:08.748Z,24.15
2022-09-22T11:41:42.082Z,19.52
2022-09-22T11:44:37.185Z,17.25
2022-09-22T11:47:30.508Z,15.57
2022-09-22T11:50:33.997Z,13.57
2022-09-22T11:53:28.773Z,11.20
2022-09-22T11:56:10.300Z,10.20
2022-09-22T11:58:41.808Z,9.05
2022-09-22T12:01:14.836Z,8.20
2022-09-22T12:03:48.430Z,8.68
2022-09-22T12:06:20.980Z,7.13
2022-09-22T12:11:25.938Z,14.40
2022-09-22T12:13:54.893Z,6.05
2022-09-22T12:16:31.289Z,6.95
2022-09-22T12:19:08.069Z,6.03
2022-09-22T12:21:48.543Z,4.53
2022-09-22T12:24:16.649Z,4.90
2022-09-22T12:26:46.727Z,3.65
2022-09-22T12:29:26.025Z,3.33
2022-09-22T12:31:56.711Z,3.47
2022-09-22T12:34:29.497Z,3.17
2022-09-22T12:37:01.047Z,3.30
2022-09-22T12:39:32.173Z,3.20
2022-09-22T12:42:01.820Z,3.50
2022-09-22T12:44:32.995Z,2.92
2022-09-22T12:47:04.535Z,3.08
2022-09-22T12:49:34.539Z,2.40
2022-09-22T12:52:02.772Z,2.58
2022-09-22T12:54:48.668Z,2.38
2022-09-22T12:57:32.824Z,2.35
2022-09-22T13:00:14.725Z,2.03
2022-09-22T13:02:45.994Z,2.70
2022-09-22T13:05:35.506Z,3.13
2022-09-22T13:08:04.230Z,2.63
2022-09-22T13:11:00.346Z,1.73
2022-09-22T13:13:42.442Z,1.60
2022-09-22T13:16:35.730Z,2.35
2022-09-22T13:19:09.128Z,1.20
2022-09-22T13:21:40.112Z,1.50
2022-09-22T13:24:19.549Z,1.30
2022-09-22T13:26:47.470Z,1.38
2022-09-22T13:29:17.694Z,1.13
2022-09-22T13:31:47.152Z,1.20
2022-09-22T13:34:22.389Z,0.98
2022-09-22T13:36:54.012Z,1.13
2022-09-22T13:39:24.832Z,1.13
2022-09-22T13:41:56.821Z,1.10
2022-09-22T13:44:30.625Z,1.17
2022-09-22T13:47:01.964Z,1.15
2022-09-22T13:49:33.234Z,1.17
2022-09-22T13:52:07.329Z,0.73
2022-09-22T13:54:38.386Z,1.08
2022-09-22T13:57:17.082Z,0.95
2022-09-22T13:59:45.475Z,0.50
2022-09-22T14:02:14.902Z,0.80
2022-09-22T14:04:51.460Z,0.88
2022-09-22T14:07:22.779Z,0.85
2022-09-22T14:09:51.695Z,0.95
2022-09-22T14:12:20.860Z,0.70
2022-09-22T14:14:48.882Z,0.88
2022-09-22T14:17:20.706Z,0.80
2022-09-22T14:19:57.196Z,0.70
2022-09-22T14:22:28.364Z,0.82
2022-09-22T14:24:58.501Z,0.70
2022-09-22T14:27:29.085Z,0.70
2022-09-22T14:29:58.080Z,1.02
2022-09-22T14:32:31.296Z,0.93
2022-09-22T14:35:02.451Z,0.63
2022-09-22T14:37:35.274Z,0.88
2022-09-22T14:40:06.117Z,0.63
2022-09-22T14:42:34.496Z,0.73
2022-09-22T14:45:27.665Z,0.80
2022-09-22T14:48:17.928Z,0.80
2022-09-22T14:50:49.358Z,0.70
2022-09-22T14:53:23.336Z,0.85
2022-09-22T14:55:54.625Z,0.70
2022-09-22T14:58:25.285Z,0.75
2022-09-22T15:01:13.358Z,0.70
2022-09-22T15:03:43.447Z,0.68
2022-09-22T15:06:14.106Z,0.60
2022-09-22T15:08:48.901Z,0.50
2022-09-22T15:11:18.908Z,0.60
2022-09-22T15:13:50.823Z,0.55
2022-09-22T15:16:37.976Z,0.40
2022-09-22T15:19:06.474Z,1.05
2022-09-22T15:21:40.631Z,0.55
2022-09-22T15:24:11.672Z,0.50
2022-09-22T15:26:41.861Z,0.60
2022-09-22T15:29:12.655Z,0.50
2022-09-22T15:31:40.604Z,0.60
2022-09-22T15:34:10.473Z,0.70
2022-09-22T15:36:45.885Z,0.70
2022-09-22T15:39:21.579Z,0.63
2022-09-22T15:41:49.779Z,0.70
2022-09-22T15:44:17.832Z,0.65
2022-09-22T15:46:48.890Z,0.60
2022-09-22T15:49:21.060Z,1.13
2022-09-22T15:51:49.848Z,0.90
2022-09-22T15:54:20.481Z,0.95
2022-09-22T15:56:51.217Z,0.70
2022-09-22T15:59:22.362Z,0.90
2022-09-22T16:01:51.908Z,1.00
2022-09-22T16:04:20.152Z,0.90
2022-09-22T16:06:54.316Z,1.88
2022-09-22T16:09:23.745Z,1.10
2022-09-22T16:11:51.781Z,1.15
2022-09-22T16:14:19.865Z,1.42
2022-09-22T16:16:47.759Z,0.95
2022-09-22T16:19:16.150Z,0.80
2022-09-22T16:21:51.080Z,0.77
2022-09-22T16:24:19.025Z,1.05
2022-09-22T16:26:48.385Z,1.13
2022-09-22T16:29:16.555Z,0.95
2022-09-22T16:31:44.498Z,0.93
2022-09-22T16:34:12.531Z,0.95
2022-09-22T16:36:41.773Z,0.90
2022-09-22T16:39:09.891Z,1.45
2022-09-22T16:41:37.994Z,1.42
2022-09-22T16:44:07.238Z,1.15
2022-09-22T16:46:35.696Z,1.00
2022-09-22T16:49:07.338Z,1.10
2022-09-22T16:51:38.174Z,1.02
2022-09-22T16:54:07.597Z,1.20
2022-09-22T16:56:37.776Z,0.93
2022-09-22T16:59:07.772Z,0.82
2022-09-22T17:01:37.844Z,0.80
2022-09-22T17:04:07.642Z,1.05
2022-09-22T17:06:38.266Z,1.05
2022-09-22T17:09:08.005Z,1.02
2022-09-22T17:11:38.116Z,0.82
2022-09-22T17:14:12.411Z,1.02
2022-09-22T17:16:42.429Z,1.20
2022-09-22T17:19:12.367Z,1.00
2022-09-22T17:21:41.116Z,1.17
2022-09-22T17:24:09.731Z,1.20
2022-09-22T17:26:41.345Z,1.23
2022-09-22T17:29:10.977Z,1.10
2022-09-22T17:31:41.269Z,0.90
2022-09-22T17:34:09.837Z,0.98
2022-09-22T17:36:37.889Z,1.30
2022-09-22T17:39:06.304Z,0.95
2022-09-22T17:41:35.264Z,1.20
2022-09-22T17:44:03.695Z,1.40
2022-09-22T17:46:35.623Z,1.10
2022-09-22T17:49:17.463Z,0.90
2022-09-22T17:52:05.025Z,1.30
2022-09-22T17:54:52.428Z,1.02
2022-09-22T17:57:22.971Z,1.00
2022-09-22T17:59:51.456Z,1.00
2022-09-22T18:02:22.042Z,1.15
2022-09-22T18:04:50.059Z,1.17
2022-09-22T18:07:19.954Z,1.70
2022-09-22T18:09:50.845Z,1.30
2022-09-22T18:12:21.488Z,3.42
2022-09-22T18:14:52.082Z,1.77
2022-09-22T18:17:24.683Z,1.80
2022-09-22T18:19:56.113Z,1.58
2022-09-22T18:22:24.831Z,1.75
2022-09-22T18:24:55.159Z,1.77
2022-09-22T18:27:25.103Z,1.70
2022-09-22T18:29:54.138Z,1.65
2022-09-22T18:32:23.478Z,2.00
2022-09-22T18:34:53.900Z,2.70
2022-09-22T18:37:22.594Z,2.13
2022-09-22T18:39:51.361Z,2.25
2022-09-22T18:42:24.374Z,1.83
2022-09-22T18:44:56.639Z,1.40
2022-09-22T18:47:26.332Z,1.67
2022-09-22T18:49:54.300Z,1.30
2022-09-22T18:52:24.547Z,1.60
2022-09-22T18:54:54.683Z,1.55
2022-09-22T18:57:24.476Z,1.40
2022-09-22T18:59:52.556Z,1.23
2022-09-22T19:02:22.501Z,1.38
2022-09-22T19:04:52.632Z,1.10
2022-09-22T19:07:43.342Z,1.30
2022-09-22T19:10:13.375Z,1.20
2022-09-22T19:12:45.002Z,1.55
2022-09-22T19:15:18.983Z,1.73
2022-09-22T19:17:50.961Z,1.10
2022-09-22T19:20:26.194Z,1.42
2022-09-22T19:22:54.694Z,1.10
2022-09-22T19:25:24.538Z,1.35
2022-09-22T19:27:54.244Z,1.42
2022-09-22T19:30:24.893Z,1.00
2022-09-22T19:32:55.082Z,1.10
2022-09-22T19:35:24.810Z,1.13
2022-09-22T19:37:53.468Z,1.15
2022-09-22T19:40:24.309Z,0.90
2022-09-22T19:42:53.730Z,1.02
2022-09-22T19:45:23.857Z,1.00
2022-09-22T19:47:52.061Z,1.30
2022-09-22T19:50:20.140Z,1.10
2022-09-22T19:52:49.736Z,1.20
2022-09-22T19:55:20.878Z,1.05
2022-09-22T19:57:52.388Z,1.30
2022-09-22T20:00:25.955Z,1.15
2022-09-22T20:02:58.615Z,0.80
2022-09-22T20:05:30.445Z,1.08
2022-09-22T20:07:59.946Z,1.15
2022-09-22T20:10:28.213Z,1.20
2022-09-22T20:12:56.089Z,0.90
2022-09-22T20:15:24.010Z,1.20
2022-09-22T20:17:52.163Z,0.90
2022-09-22T20:20:22.665Z,1.10
2022-09-22T20:22:56.861Z,0.85
2022-09-22T20:25:28.731Z,1.00
2022-09-22T20:27:57.328Z,1.00
2022-09-22T20:30:25.482Z,1.25
2022-09-22T20:32:53.958Z,0.98
2022-09-22T20:35:22.017Z,1.00
2022-09-22T20:37:51.616Z,1.05
2022-09-22T20:40:23.110Z,0.93
2022-09-22T20:42:54.649Z,1.08
2022-09-22T20:45:24.794Z,1.00
2022-09-22T20:47:52.723Z,1.10
2022-09-22T20:50:21.216Z,1.10
2022-09-22T20:52:49.210Z,0.90
2022-09-22T20:55:17.380Z,0.90
2022-09-22T20:57:45.266Z,1.00
2022-09-22T21:00:16.329Z,1.13
2022-09-22T21:02:44.629Z,1.00
2022-09-22T21:05:12.771Z,1.10
2022-09-22T21:07:40.619Z,0.90
2022-09-22T21:10:26.689Z,1.10
2022-09-22T21:12:56.040Z,0.80
2022-09-22T21:15:25.389Z,0.63
2022-09-22T21:17:53.614Z,1.00
2022-09-22T21:20:21.635Z,0.90
2022-09-22T21:22:49.592Z,1.00
2022-09-22T21:25:17.660Z,1.10
2022-09-22T21:27:45.570Z,0.90
2022-09-22T21:30:14.677Z,0.68
2022-09-22T21:32:43.977Z,1.00
2022-09-22T21:35:16.752Z,0.93
2022-09-22T21:37:45.040Z,1.00
2022-09-22T21:40:13.299Z,1.05
2022-09-22T21:42:41.434Z,1.20
2022-09-22T21:45:10.312Z,1.10
2022-09-22T21:47:38.180Z,0.93
2022-09-22T21:50:08.740Z,1.02
2022-09-22T21:52:38.492Z,0.90
2022-09-22T21:55:07.529Z,0.77
2022-09-22T21:57:35.491Z,0.80
2022-09-22T22:00:04.789Z,0.95
2022-09-22T22:02:53.650Z,0.90
2022-09-22T22:05:22.924Z,0.77
2022-09-22T22:07:50.855Z,0.80
2022-09-22T22:10:19.233Z,0.90
2022-09-22T22:12:47.119Z,0.90
2022-09-22T22:15:15.558Z,0.75
2022-09-22T22:17:43.438Z,0.77
2022-09-22T22:20:11.382Z,0.93
2022-09-22T22:22:40.669Z,0.75
2022-09-22T22:25:12.867Z,0.60
2022-09-22T22:27:40.967Z,0.98
2022-09-22T22:30:10.379Z,0.70
2022-09-22T22:32:38.233Z,0.80
2022-09-22T22:35:07.322Z,0.60
2022-09-22T22:37:36.551Z,0.95
2022-09-22T22:40:06.705Z,0.98
2022-09-22T22:42:34.622Z,0.70
2022-09-22T22:45:02.501Z,1.00
2022-09-22T22:47:30.370Z,0.98
2022-09-22T22:49:58.225Z,0.90
2022-09-22T22:52:26.068Z,0.90
2022-09-22T22:54:54.103Z,0.80
2022-09-22T22:57:23.403Z,0.80
2022-09-22T22:59:51.257Z,0.70
2022-09-22T23:02:19.153Z,1.05
2022-09-22T23:04:47.092Z,0.82
2022-09-22T23:07:14.932Z,1.00
2022-09-22T23:09:42.796Z,0.90
2022-09-22T23:12:10.663Z,0.90
2022-09-22T23:14:39.884Z,0.82
2022-09-22T23:17:07.788Z,0.90
2022-09-22T23:19:36.011Z,0.90
2022-09-22T23:22:04.156Z,1.15
2022-09-22T23:24:32.072Z,1.10
2022-09-22T23:27:00.009Z,0.95
2022-09-22T23:29:27.865Z,0.82
2022-09-22T23:31:57.171Z,0.85
2022-09-22T23:34:25.110Z,1.00
2022-09-22T23:36:53.078Z,0.93
2022-09-22T23:39:20.928Z,1.05
2022-09-22T23:41:49.022Z,0.80
2022-09-22T23:44:16.940Z,1.05
2022-09-22T23:46:44.825Z,1.15
2022-09-22T23:49:14.052Z,1.23
2022-09-22T23:51:43.596Z,1.02
2022-09-22T23:54:13.657Z,1.10
2022-09-22T23:56:41.617Z,1.30
2022-09-22T23:59:09.696Z,1.08
